Weather at Bergen Airport, Flesland

Public forecast

Using degrees Celsius for public forecast. Weather courtesy of forecast.io.

Current aviation weather report (METAR) for Bergen Airport, Flesland

Retrieved 2022/05/21 05:20 UTC (6 minutes ago):

ENBR 210520Z VRB02KT 9999 FEW007 SCT018 BKN070 09/08 Q1009 NOSIG RMK WIND 1200FT 33003KT

Aviation forecast (TAF) for Bergen Airport, Flesland

Retrieved 2022-05-21 00:57 UTC (4 hours ago):

TAF ENBR 202300Z 2100/2124 17005KT 9999 FEW010 BKN040 TEMPO 2100/2112 4000 SHRA BKN008 SCT020TCU PROB40 2119/2124 2000 DZ BR BKN004